createdAt,value
2018-02-27T00:02:08.008Z,6.33
2018-02-27T00:04:34.608Z,6.30
2018-02-27T00:07:01.210Z,6.63
2018-02-27T00:09:27.791Z,7.30
2018-02-27T00:11:54.404Z,9.23
2018-02-27T00:14:21.000Z,5.83
2018-02-27T00:16:47.595Z,7.10
2018-02-27T00:19:14.201Z,5.20
2018-02-27T00:21:40.796Z,4.63
2018-02-27T00:24:07.393Z,4.80
2018-02-27T00:26:33.998Z,4.83
2018-02-27T00:29:00.584Z,5.27
2018-02-27T00:31:27.181Z,4.50
2018-02-27T00:33:53.792Z,6.27
2018-02-27T00:36:20.396Z,5.30
2018-02-27T00:38:46.997Z,4.43
2018-02-27T00:41:13.840Z,3.83
2018-02-27T00:43:40.441Z,4.60
2018-02-27T00:46:07.032Z,2.80
2018-02-27T00:48:33.637Z,3.73
2018-02-27T00:51:00.243Z,4.05
2018-02-27T00:53:26.847Z,3.43
2018-02-27T00:55:53.464Z,3.62
2018-02-27T00:58:20.060Z,3.20
2018-02-27T01:00:46.649Z,3.53
2018-02-27T01:03:13.256Z,3.50
2018-02-27T01:05:39.848Z,3.63
2018-02-27T01:08:06.449Z,3.15
2018-02-27T01:10:33.052Z,3.60
2018-02-27T01:12:59.683Z,3.53
2018-02-27T01:15:26.277Z,3.00
2018-02-27T01:17:52.876Z,2.73
2018-02-27T01:20:19.468Z,3.03
2018-02-27T01:22:46.061Z,3.10
2018-02-27T01:25:12.688Z,3.33
2018-02-27T01:27:39.280Z,3.37
2018-02-27T01:30:05.886Z,2.70
2018-02-27T01:32:32.523Z,3.00
2018-02-27T01:34:59.111Z,3.40
2018-02-27T01:37:25.724Z,3.10
2018-02-27T01:39:52.324Z,3.00
2018-02-27T01:42:18.916Z,3.57
2018-02-27T01:44:45.524Z,3.63
2018-02-27T01:47:12.188Z,3.37
2018-02-27T01:49:38.790Z,3.07
2018-02-27T01:52:05.388Z,3.40
2018-02-27T01:54:31.993Z,3.43
2018-02-27T01:56:58.589Z,4.03
2018-02-27T01:59:25.182Z,3.60
2018-02-27T02:01:51.784Z,3.17
2018-02-27T02:04:18.388Z,3.90
2018-02-27T02:06:44.968Z,3.30
2018-02-27T02:09:11.572Z,3.77
2018-02-27T02:11:38.160Z,3.50
2018-02-27T02:14:04.761Z,4.50
2018-02-27T02:16:31.357Z,4.23
2018-02-27T02:18:57.944Z,3.70
2018-02-27T02:21:24.563Z,4.10
2018-02-27T02:23:51.172Z,4.37
2018-02-27T02:26:17.761Z,4.30
2018-02-27T02:28:44.353Z,4.27
2018-02-27T02:31:10.953Z,4.87
2018-02-27T02:33:37.545Z,3.90
2018-02-27T02:36:04.141Z,3.87
2018-02-27T02:38:30.748Z,4.00
2018-02-27T02:40:57.335Z,4.40
2018-02-27T02:43:23.927Z,4.70
2018-02-27T02:45:50.538Z,4.20
2018-02-27T02:48:17.136Z,3.87
2018-02-27T02:50:43.728Z,4.10
2018-02-27T02:53:10.380Z,5.40
2018-02-27T02:55:36.961Z,4.53
2018-02-27T02:58:03.556Z,4.13
2018-02-27T03:00:30.176Z,4.90
2018-02-27T03:02:56.771Z,4.60
2018-02-27T03:05:23.356Z,5.33
2018-02-27T03:07:49.966Z,3.77
2018-02-27T03:10:16.552Z,4.50
2018-02-27T03:12:43.147Z,4.23
2018-02-27T03:15:09.752Z,4.50
2018-02-27T03:17:36.355Z,5.80
2018-02-27T03:20:02.976Z,4.63
2018-02-27T03:22:29.576Z,4.70
2018-02-27T03:24:56.197Z,4.90
2018-02-27T03:27:22.770Z,6.03
2018-02-27T03:29:49.373Z,4.97
2018-02-27T03:32:15.965Z,5.30
2018-02-27T03:34:42.547Z,4.87
2018-02-27T03:37:09.156Z,4.37
2018-02-27T03:39:35.748Z,5.07
2018-02-27T03:42:02.340Z,4.90
2018-02-27T03:44:29.240Z,5.10
2018-02-27T03:46:55.836Z,5.70
2018-02-27T03:49:22.424Z,6.07
2018-02-27T03:51:49.032Z,4.63
2018-02-27T03:54:15.622Z,5.03
2018-02-27T03:56:42.213Z,4.37
2018-02-27T03:59:08.816Z,6.53
2018-02-27T04:01:35.410Z,5.13
2018-02-27T04:04:01.978Z,5.13
2018-02-27T04:06:28.569Z,6.47
2018-02-27T04:08:55.144Z,4.60
2018-02-27T04:11:21.721Z,5.30
2018-02-27T04:13:48.609Z,5.60
2018-02-27T04:16:15.186Z,6.27
2018-02-27T04:18:41.757Z,5.60
2018-02-27T04:21:08.586Z,5.10
2018-02-27T04:23:35.159Z,5.23
2018-02-27T04:26:01.737Z,5.27
2018-02-27T04:28:28.326Z,6.70
2018-02-27T04:30:54.899Z,6.67
2018-02-27T04:33:21.469Z,4.83
2018-02-27T04:35:48.358Z,5.80
2018-02-27T04:38:14.956Z,5.20
2018-02-27T04:40:41.551Z,6.00
2018-02-27T04:43:08.173Z,5.47
2018-02-27T04:45:34.764Z,6.17
2018-02-27T04:48:01.356Z,5.00
2018-02-27T04:50:27.975Z,5.30
2018-02-27T04:52:54.560Z,7.80
2018-02-27T04:55:21.153Z,6.53
2018-02-27T04:57:47.769Z,7.30
2018-02-27T05:00:14.404Z,5.07
2018-02-27T05:02:40.996Z,5.90
2018-02-27T05:05:07.608Z,7.60
2018-02-27T05:07:34.196Z,5.77
2018-02-27T05:10:00.787Z,6.57
2018-02-27T05:12:27.429Z,5.80
2018-02-27T05:14:54.020Z,5.70
2018-02-27T05:17:20.613Z,7.47
2018-02-27T05:19:47.212Z,10.10
2018-02-27T05:22:13.924Z,7.83
2018-02-27T05:24:40.524Z,6.70
2018-02-27T05:27:07.140Z,8.17
2018-02-27T05:29:33.732Z,7.43
2018-02-27T05:32:00.320Z,7.90
2018-02-27T05:34:26.919Z,8.63
2018-02-27T05:36:53.513Z,6.20
2018-02-27T05:39:20.108Z,8.47
2018-02-27T05:41:46.755Z,7.23
2018-02-27T05:44:13.304Z,8.87
2018-02-27T05:46:39.900Z,7.83
2018-02-27T05:49:06.496Z,9.87
2018-02-27T05:51:33.100Z,6.83
2018-02-27T05:53:59.699Z,12.93
2018-02-27T05:56:26.320Z,7.20
2018-02-27T05:58:52.916Z,9.07
2018-02-27T06:01:19.512Z,10.27
2018-02-27T06:03:46.116Z,8.13
2018-02-27T06:06:12.721Z,11.37
2018-02-27T06:08:40.578Z,12.17
2018-02-27T06:11:07.211Z,8.83
2018-02-27T06:13:34.040Z,9.47
2018-02-27T06:16:00.637Z,10.20
2018-02-27T06:18:27.508Z,10.60
2018-02-27T06:20:54.100Z,8.80
2018-02-27T06:23:20.697Z,12.07
2018-02-27T06:25:47.312Z,13.83
2018-02-27T06:28:13.904Z,11.20
2018-02-27T06:30:40.503Z,16.27
2018-02-27T06:33:07.441Z,11.73
2018-02-27T06:35:34.025Z,10.30
2018-02-27T06:38:00.620Z,12.40
2018-02-27T06:40:27.560Z,11.70
2018-02-27T06:42:54.156Z,12.27
2018-02-27T06:45:20.760Z,10.93
2018-02-27T06:47:47.367Z,10.43
2018-02-27T06:50:13.992Z,11.50
2018-02-27T06:52:40.633Z,10.63
2018-02-27T06:55:07.266Z,10.40
2018-02-27T06:57:33.860Z,10.70
2018-02-27T07:00:00.460Z,11.90
2018-02-27T07:02:27.452Z,12.63
2018-02-27T07:04:54.046Z,10.40
2018-02-27T07:07:20.645Z,12.50
2018-02-27T07:09:47.260Z,11.80
2018-02-27T07:12:13.899Z,12.20
2018-02-27T07:14:40.488Z,9.97
2018-02-27T07:17:07.096Z,11.80
2018-02-27T07:19:33.692Z,12.07
2018-02-27T07:22:00.284Z,24.13
2018-02-27T07:24:26.891Z,11.30
2018-02-27T07:26:53.484Z,13.53
2018-02-27T07:29:20.094Z,13.63
2018-02-27T07:31:46.696Z,11.20
2018-02-27T07:34:13.299Z,13.90
2018-02-27T07:36:39.896Z,13.30
2018-02-27T07:39:06.508Z,14.27
2018-02-27T07:41:33.103Z,12.67
2018-02-27T07:43:59.718Z,13.00
2018-02-27T07:46:26.316Z,14.67
2018-02-27T07:48:52.925Z,11.27
2018-02-27T07:51:19.565Z,13.38
2018-02-27T07:53:46.154Z,13.87
2018-02-27T07:56:12.772Z,16.60
2018-02-27T07:58:39.382Z,14.80
2018-02-27T08:01:05.999Z,14.50
2018-02-27T08:03:32.604Z,13.73
2018-02-27T08:05:59.213Z,13.90
2018-02-27T08:08:25.817Z,13.40
2018-02-27T08:10:52.428Z,10.23
2018-02-27T08:13:19.387Z,11.15
2018-02-27T08:15:45.989Z,16.20
2018-02-27T08:18:12.579Z,11.97
2018-02-27T08:20:39.184Z,17.33
2018-02-27T08:23:05.784Z,15.40
2018-02-27T08:25:32.388Z,9.73
2018-02-27T08:27:59.015Z,13.43
2018-02-27T08:30:25.607Z,10.93
2018-02-27T08:32:55.548Z,10.37
2018-02-27T08:35:22.147Z,11.70
2018-02-27T08:37:48.756Z,11.07
2018-02-27T08:40:15.376Z,11.50
2018-02-27T08:42:41.976Z,10.90
2018-02-27T08:45:08.624Z,9.50
2018-02-27T08:47:35.223Z,8.80
2018-02-27T08:50:02.534Z,10.53
2018-02-27T08:52:29.140Z,9.33
2018-02-27T08:54:55.727Z,9.17
2018-02-27T08:57:22.327Z,8.13
2018-02-27T08:59:48.922Z,8.83
2018-02-27T09:02:15.532Z,7.37
2018-02-27T09:04:42.169Z,7.53
2018-02-27T09:07:08.760Z,7.63
2018-02-27T09:09:35.384Z,7.47
2018-02-27T09:12:01.968Z,7.60
2018-02-27T09:14:28.580Z,7.40
2018-02-27T09:16:55.180Z,6.27
2018-02-27T09:19:21.784Z,9.68
2018-02-27T09:21:48.400Z,7.43
2018-02-27T09:24:14.992Z,5.80
2018-02-27T09:26:41.604Z,5.80
2018-02-27T09:29:08.192Z,7.77
2018-02-27T09:31:34.796Z,4.10
2018-02-27T09:34:01.417Z,3.93
2018-02-27T09:36:28.026Z,5.28
2018-02-27T09:38:54.636Z,17.83
2018-02-27T09:41:21.256Z,4.67
2018-02-27T09:43:47.892Z,5.30
2018-02-27T09:46:14.492Z,4.10
2018-02-27T09:48:41.080Z,5.50
2018-02-27T09:51:07.698Z,4.00
2018-02-27T09:53:34.287Z,4.67
2018-02-27T09:56:00.881Z,4.57
2018-02-27T09:58:27.520Z,4.23
2018-02-27T10:00:54.112Z,3.67
2018-02-27T10:03:20.732Z,3.80
2018-02-27T10:05:47.328Z,2.97
2018-02-27T10:08:13.932Z,3.37
2018-02-27T10:10:40.528Z,4.43
2018-02-27T10:13:07.134Z,2.83
2018-02-27T10:15:33.757Z,3.00
2018-02-27T10:18:00.346Z,2.87
2018-02-27T10:20:26.947Z,3.20
2018-02-27T10:22:53.556Z,2.83
2018-02-27T10:25:20.148Z,3.33
2018-02-27T10:27:46.738Z,3.13
2018-02-27T10:30:13.344Z,2.83
2018-02-27T10:32:39.936Z,2.53
2018-02-27T10:35:06.527Z,4.53
2018-02-27T10:37:33.136Z,2.37
2018-02-27T10:39:59.732Z,2.47
2018-02-27T10:42:26.324Z,2.87
2018-02-27T10:44:52.937Z,3.00
2018-02-27T10:47:19.527Z,2.73
2018-02-27T10:49:46.149Z,4.13
2018-02-27T10:52:13.289Z,3.73
2018-02-27T10:54:39.868Z,2.30
2018-02-27T10:57:06.472Z,2.70
2018-02-27T11:02:07.084Z,2.20
2018-02-27T11:04:33.688Z,2.70
2018-02-27T11:07:00.403Z,2.37
2018-02-27T11:09:26.990Z,2.10
2018-02-27T11:11:53.596Z,2.70
2018-02-27T11:14:20.192Z,2.80
2018-02-27T11:16:46.789Z,2.67
2018-02-27T11:19:13.395Z,2.37
2018-02-27T11:21:40.000Z,2.47
2018-02-27T11:24:06.600Z,2.10
2018-02-27T11:26:33.200Z,2.23
2018-02-27T11:28:59.797Z,2.00
2018-02-27T11:31:26.399Z,2.20
2018-02-27T11:33:53.034Z,2.10
2018-02-27T11:36:20.064Z,2.40
2018-02-27T11:38:46.637Z,1.63
2018-02-27T11:41:13.232Z,1.80
2018-02-27T11:43:39.832Z,2.10
2018-02-27T11:46:06.432Z,4.10
2018-02-27T11:48:33.028Z,2.23
2018-02-27T11:50:59.621Z,2.07
2018-02-27T11:53:26.234Z,2.33
2018-02-27T11:55:52.828Z,2.10
2018-02-27T11:58:19.419Z,2.80
2018-02-27T12:00:46.024Z,4.27
2018-02-27T12:03:12.613Z,1.70
2018-02-27T12:05:39.208Z,2.10
2018-02-27T12:08:05.807Z,1.67
2018-02-27T12:10:32.408Z,1.80
2018-02-27T12:12:59.012Z,1.73
2018-02-27T12:15:25.603Z,1.77
2018-02-27T12:17:52.196Z,1.50
2018-02-27T12:20:18.792Z,1.50
2018-02-27T12:22:45.388Z,2.87
2018-02-27T12:25:11.992Z,1.80
2018-02-27T12:27:38.588Z,1.60
2018-02-27T12:30:05.180Z,1.83
2018-02-27T12:32:31.786Z,1.93
2018-02-27T12:34:58.376Z,1.50
2018-02-27T12:37:24.976Z,1.60
2018-02-27T12:39:51.580Z,1.43
2018-02-27T12:42:18.189Z,1.50
2018-02-27T12:44:44.788Z,1.73
2018-02-27T12:47:11.380Z,1.30
2018-02-27T12:49:37.980Z,1.53
2018-02-27T12:52:04.568Z,1.53
2018-02-27T12:54:31.192Z,1.40
2018-02-27T12:56:57.786Z,1.60
2018-02-27T12:59:24.378Z,1.70
2018-02-27T13:01:50.968Z,2.97
2018-02-27T13:04:17.559Z,1.37
2018-02-27T13:06:44.176Z,1.80
2018-02-27T13:09:10.763Z,1.47
2018-02-27T13:11:37.360Z,1.67
2018-02-27T13:14:03.951Z,1.63
2018-02-27T13:16:30.550Z,1.83
2018-02-27T13:18:57.256Z,1.47
2018-02-27T13:21:23.836Z,1.13
2018-02-27T13:23:50.425Z,1.33
2018-02-27T13:26:17.017Z,1.50
2018-02-27T13:28:43.616Z,1.23
2018-02-27T13:31:10.224Z,1.60
2018-02-27T13:33:36.825Z,1.53
2018-02-27T13:36:03.434Z,1.63
2018-02-27T13:38:30.033Z,2.03
2018-02-27T13:40:56.636Z,1.50
2018-02-27T13:43:23.273Z,2.77
2018-02-27T13:45:49.863Z,1.57
2018-02-27T13:48:16.456Z,1.30
2018-02-27T13:50:43.064Z,1.30
2018-02-27T13:53:09.644Z,1.30
2018-02-27T13:55:36.244Z,1.40
2018-02-27T13:58:02.827Z,1.30
2018-02-27T14:00:29.431Z,1.40
2018-02-27T14:02:56.028Z,1.33
2018-02-27T14:05:22.648Z,1.57
2018-02-27T14:07:49.276Z,1.60
2018-02-27T14:10:15.872Z,1.40
2018-02-27T14:12:42.463Z,1.37
2018-02-27T14:15:09.097Z,1.77
2018-02-27T14:17:35.692Z,1.40
2018-02-27T14:20:02.310Z,1.10
2018-02-27T14:22:28.903Z,1.37
2018-02-27T14:24:55.511Z,1.20
2018-02-27T14:27:22.112Z,1.37
2018-02-27T14:29:48.704Z,4.13
2018-02-27T14:32:15.320Z,1.20
2018-02-27T14:34:41.912Z,1.30
2018-02-27T14:37:08.500Z,1.43
2018-02-27T14:39:35.100Z,4.00
2018-02-27T14:42:01.717Z,1.30
2018-02-27T14:44:28.651Z,1.40
2018-02-27T14:46:55.248Z,1.60
2018-02-27T14:49:21.840Z,1.57
2018-02-27T14:51:48.444Z,1.53
2018-02-27T14:54:15.032Z,1.40
2018-02-27T14:56:41.645Z,1.80
2018-02-27T14:59:08.224Z,1.33
2018-02-27T15:01:34.813Z,1.40
2018-02-27T15:04:01.408Z,3.63
2018-02-27T15:06:28.018Z,1.27
2018-02-27T15:08:54.624Z,1.60
2018-02-27T15:11:21.270Z,1.20
2018-02-27T15:13:47.859Z,1.80
2018-02-27T15:16:14.452Z,1.53
2018-02-27T15:18:41.048Z,1.90
2018-02-27T15:21:07.652Z,1.60
2018-02-27T15:23:34.248Z,5.90
2018-02-27T15:26:00.841Z,1.93
2018-02-27T15:28:27.441Z,1.20
2018-02-27T15:30:54.131Z,1.40
2018-02-27T15:33:20.736Z,2.10
2018-02-27T15:35:47.324Z,2.83
2018-02-27T15:38:13.928Z,1.80
2018-02-27T15:40:40.520Z,1.30
2018-02-27T15:43:07.120Z,1.83
2018-02-27T15:45:33.724Z,1.47
2018-02-27T15:48:00.319Z,1.20
2018-02-27T15:50:26.916Z,1.60
2018-02-27T15:52:53.516Z,1.90
2018-02-27T15:55:20.112Z,3.77
2018-02-27T15:57:47.040Z,3.57
2018-02-27T16:00:13.636Z,2.40
2018-02-27T16:02:40.232Z,2.30
2018-02-27T16:05:06.884Z,2.13
2018-02-27T16:07:33.499Z,2.20
2018-02-27T16:10:00.104Z,1.90
2018-02-27T16:12:26.711Z,1.90
2018-02-27T16:14:53.309Z,2.03
2018-02-27T16:17:19.954Z,2.10
2018-02-27T16:19:46.543Z,1.67
2018-02-27T16:22:13.140Z,1.60
2018-02-27T16:24:39.745Z,2.00
2018-02-27T16:27:06.339Z,1.90
2018-02-27T16:29:33.449Z,1.97
2018-02-27T16:32:00.034Z,2.07
2018-02-27T16:34:26.694Z,1.87
2018-02-27T16:36:53.292Z,2.17
2018-02-27T16:39:19.890Z,2.17
2018-02-27T16:41:46.505Z,6.63
2018-02-27T16:44:13.093Z,3.20
2018-02-27T16:46:39.696Z,2.07
2018-02-27T16:49:06.303Z,2.33
2018-02-27T16:51:32.893Z,2.20
2018-02-27T16:53:59.484Z,2.30
2018-02-27T16:56:26.120Z,2.20
2018-02-27T16:58:52.724Z,2.10
2018-02-27T17:01:19.464Z,2.10
2018-02-27T17:03:46.060Z,1.93
2018-02-27T17:06:12.656Z,2.37
2018-02-27T17:08:39.287Z,3.53
2018-02-27T17:11:05.871Z,2.30
2018-02-27T17:13:32.472Z,2.30
2018-02-27T17:15:59.241Z,2.10
2018-02-27T17:18:26.276Z,2.23
2018-02-27T17:20:52.897Z,4.07
2018-02-27T17:23:19.502Z,2.10
2018-02-27T17:25:46.117Z,2.93
2018-02-27T17:28:12.716Z,2.80
2018-02-27T17:30:39.321Z,2.07
2018-02-27T17:33:05.920Z,2.00
2018-02-27T17:35:32.508Z,2.40
2018-02-27T17:37:59.184Z,2.73
2018-02-27T17:40:25.784Z,2.53
2018-02-27T17:42:52.387Z,2.50
2018-02-27T17:45:18.981Z,2.60
2018-02-27T17:47:45.580Z,2.27
2018-02-27T17:50:12.173Z,4.53
2018-02-27T17:52:38.783Z,2.50
2018-02-27T17:55:05.381Z,2.83
2018-02-27T17:57:31.992Z,3.07
2018-02-27T17:59:58.588Z,2.90
2018-02-27T18:02:25.184Z,3.97
2018-02-27T18:04:51.787Z,2.80
2018-02-27T18:07:18.388Z,2.90
2018-02-27T18:09:44.980Z,3.10
2018-02-27T18:12:11.629Z,3.20
2018-02-27T18:14:38.212Z,4.30
2018-02-27T18:17:04.811Z,3.67
2018-02-27T18:19:31.409Z,3.93
2018-02-27T18:21:58.009Z,2.63
2018-02-27T18:24:24.956Z,3.20
2018-02-27T18:26:51.541Z,8.90
2018-02-27T18:29:18.152Z,3.10
2018-02-27T18:31:44.764Z,3.70
2018-02-27T18:34:11.357Z,3.97
2018-02-27T18:36:37.948Z,6.93
2018-02-27T18:39:04.555Z,4.83
2018-02-27T18:41:31.148Z,6.13
2018-02-27T18:43:57.896Z,4.90
2018-02-27T18:46:24.344Z,4.70
2018-02-27T18:48:50.931Z,6.17
2018-02-27T18:51:17.565Z,7.10
2018-02-27T18:53:44.152Z,4.17
2018-02-27T18:56:10.752Z,7.20
2018-02-27T18:58:37.350Z,4.73
2018-02-27T19:01:03.945Z,5.23
2018-02-27T19:03:30.549Z,5.10
2018-02-27T19:05:57.139Z,4.50
2018-02-27T19:08:23.734Z,4.57
2018-02-27T19:10:50.332Z,5.87
2018-02-27T19:13:16.936Z,6.17
2018-02-27T19:15:43.529Z,4.60
2018-02-27T19:18:10.121Z,4.50
2018-02-27T19:20:36.723Z,4.10
2018-02-27T19:23:03.313Z,7.90
2018-02-27T19:25:29.929Z,5.00
2018-02-27T19:27:56.517Z,6.50
2018-02-27T19:30:23.104Z,7.43
2018-02-27T19:32:49.708Z,6.17
2018-02-27T19:35:16.304Z,4.73
2018-02-27T19:37:42.909Z,4.63
2018-02-27T19:40:09.504Z,4.07
2018-02-27T19:42:36.129Z,5.30
2018-02-27T19:45:02.721Z,7.37
2018-02-27T19:47:29.312Z,6.47
2018-02-27T19:49:55.907Z,5.20
2018-02-27T19:52:22.505Z,6.03
2018-02-27T19:54:49.111Z,5.20
2018-02-27T19:57:15.702Z,5.83
2018-02-27T19:59:42.601Z,9.13
2018-02-27T20:02:09.196Z,6.33
2018-02-27T20:04:35.804Z,5.03
2018-02-27T20:07:02.410Z,7.40
2018-02-27T20:09:29.004Z,5.43
2018-02-27T20:11:55.609Z,6.80
2018-02-27T20:14:27.916Z,6.40
2018-02-27T20:16:54.522Z,6.80
2018-02-27T20:19:21.110Z,7.37
2018-02-27T20:21:47.704Z,8.10
2018-02-27T20:24:24.048Z,7.70
2018-02-27T20:26:50.644Z,11.27
2018-02-27T20:29:22.139Z,11.87
2018-02-27T20:31:48.736Z,14.57
2018-02-27T20:34:15.332Z,16.50
2018-02-27T20:36:42.244Z,17.33
2018-02-27T20:39:14.515Z,16.10
2018-02-27T20:41:41.122Z,15.63
2018-02-27T20:44:07.720Z,11.90
2018-02-27T20:46:34.318Z,9.87
2018-02-27T20:49:00.977Z,11.90
2018-02-27T20:51:27.572Z,15.50
2018-02-27T20:53:54.183Z,17.00
2018-02-27T20:56:20.780Z,10.80
2018-02-27T20:58:47.389Z,7.10
2018-02-27T21:01:14.022Z,6.47
2018-02-27T21:03:40.617Z,9.27
2018-02-27T21:06:07.252Z,6.93
2018-02-27T21:08:33.893Z,5.50
2018-02-27T21:11:00.488Z,10.40
2018-02-27T21:13:27.092Z,7.33
2018-02-27T21:15:53.684Z,6.50
2018-02-27T21:18:20.292Z,5.43
2018-02-27T21:20:46.897Z,8.00
2018-02-27T21:23:13.503Z,5.70
2018-02-27T21:25:40.108Z,10.33
2018-02-27T21:28:06.702Z,7.60
2018-02-27T21:30:33.304Z,7.53
2018-02-27T21:32:59.901Z,8.00
2018-02-27T21:35:26.508Z,6.50
2018-02-27T21:37:53.205Z,7.67
2018-02-27T21:40:19.841Z,6.63
2018-02-27T21:42:46.445Z,7.30
2018-02-27T21:45:13.040Z,6.20
2018-02-27T21:47:39.637Z,5.00
2018-02-27T21:50:06.231Z,6.10
2018-02-27T21:52:32.853Z,6.67
2018-02-27T21:54:59.440Z,8.07
2018-02-27T21:57:26.039Z,10.00
2018-02-27T21:59:52.636Z,7.70
2018-02-27T22:02:19.260Z,7.20
2018-02-27T22:04:45.839Z,7.20
2018-02-27T22:07:12.449Z,5.90
2018-02-27T22:09:39.048Z,8.27
2018-02-27T22:12:05.655Z,7.33
2018-02-27T22:14:32.244Z,7.17
2018-02-27T22:16:58.920Z,10.97
2018-02-27T22:19:25.548Z,6.13
2018-02-27T22:21:52.188Z,6.23
2018-02-27T22:24:18.730Z,6.40
2018-02-27T22:26:45.328Z,6.43
2018-02-27T22:29:11.925Z,10.10
2018-02-27T22:31:38.540Z,8.87
2018-02-27T22:34:05.113Z,6.97
2018-02-27T22:36:31.709Z,6.87
2018-02-27T22:38:58.300Z,7.33
2018-02-27T22:41:24.893Z,6.50
2018-02-27T22:43:51.498Z,7.40
2018-02-27T22:46:18.084Z,8.00
2018-02-27T22:48:44.684Z,7.77
2018-02-27T22:51:11.284Z,6.90
2018-02-27T22:53:37.879Z,7.43
2018-02-27T22:56:04.484Z,6.43
2018-02-27T22:58:31.069Z,6.13
2018-02-27T23:00:57.665Z,5.20
2018-02-27T23:03:24.268Z,5.83
2018-02-27T23:05:50.860Z,7.00
2018-02-27T23:08:17.484Z,6.20
2018-02-27T23:10:44.084Z,6.27
2018-02-27T23:13:10.692Z,4.80
2018-02-27T23:15:37.288Z,6.33
2018-02-27T23:18:03.876Z,5.13
2018-02-27T23:20:30.732Z,4.77
2018-02-27T23:22:57.320Z,4.80
2018-02-27T23:25:36.099Z,5.60
2018-02-27T23:28:17.761Z,5.83
2018-02-27T23:30:44.502Z,9.00
2018-02-27T23:33:14.445Z,4.87
2018-02-27T23:35:41.037Z,6.80
2018-02-27T23:38:07.639Z,5.17
2018-02-27T23:40:34.224Z,4.53
2018-02-27T23:43:00.828Z,4.77
2018-02-27T23:45:27.420Z,6.13
2018-02-27T23:47:54.028Z,3.93
2018-02-27T23:50:20.628Z,3.83
2018-02-27T23:52:47.216Z,4.03
2018-02-27T23:55:13.825Z,6.73
2018-02-27T23:57:40.417Z,4.50
